This is the latest recevied weather packets stored in our database for station/object KI5GCD-13. If no packets are shown the sender has not sent any weather packets the latest 10 day(s).
| Time | Temp. | Humidity | Pressure | Rain* | Wind** | Luminosity | Snow |
|---|---|---|---|---|---|---|---|
| 1777669787 | 18.33° C | 31% | 1012.9 hPa | 0 mm | 2.68 m/s, 10° | - | - |
| 1777669487 | 18.33° C | 32% | 1013 hPa | 0 mm | 2.24 m/s, 13° | - | - |
| 1777669187 | 18.33° C | 32% | 1013 hPa | 0 mm | 1.79 m/s, 68° | - | - |
| 1777668887 | 18.89° C | 34% | 1013.2 hPa | 0 mm | 0.89 m/s, 278° | - | - |
| 1777668587 | 19.44° C | 36% | 1013.2 hPa | 0 mm | 1.34 m/s, 324° | - | - |
| 1777668287 | 18.89° C | 32% | 1013.4 hPa | 0 mm | 0.89 m/s, 275° | - | - |
| 1777667987 | 18.89° C | 32% | 1013.8 hPa | 0 mm | 3.58 m/s, 14° | - | - |
| 1777667687 | 18.89° C | 33% | 1013.6 hPa | 0 mm | 2.68 m/s, 68° | - | - |
| 1777667387 | 18.89° C | 39% | 1013.8 hPa | 0 mm | 0 m/s | - | - |
| 1777667087 | 18.89° C | 38% | 1013.8 hPa | 0 mm | 0.89 m/s, 264° | - | - |
| 1777666787 | 18.89° C | 37% | 1013.8 hPa | 0 mm | 1.34 m/s, 3° | - | - |
| 1777666487 | 18.89° C | 39% | 1013.9 hPa | 0 mm | 1.34 m/s, 11° | - | - |
| 1777666187 | 18.89° C | 33% | 1014 hPa | 0 mm | 0.45 m/s, 259° | - | - |
| 1777665887 | 18.33° C | 38% | 1014 hPa | 0 mm | 0.45 m/s, 249° | - | - |
| 1777665587 | 17.78° C | 32% | 1014.4 hPa | 0 mm | 1.34 m/s, 30° | - | - |
| 1777665287 | 18.89° C | 33% | 1014.4 hPa | 0 mm | 1.79 m/s, 84° | - | - |
| 1777664987 | 18.33° C | 33% | 1014.5 hPa | 0 mm | 0.89 m/s, 299° | - | - |
| 1777664687 | 17.78° C | 34% | 1014.3 hPa | 0 mm | 0.45 m/s, 236° | - | - |
| 1777664387 | 18.33° C | 32% | 1014.8 hPa | 0 mm | 1.79 m/s, 295° | - | - |
| 1777664088 | 17.78° C | 33% | 1014.9 hPa | 0 mm | 2.24 m/s, 41° | - | - |
| 1777663787 | 18.89° C | 31% | 1014.9 hPa | 0 mm | 0.89 m/s, 292° | - | - |
| 1777663487 | 18.33° C | 38% | 1015 hPa | 0 mm | 0.45 m/s, 308° | - | - |
| 1777663188 | 18.33° C | 32% | 1015 hPa | 0 mm | 1.34 m/s, 19° | - | - |
| 1777662888 | 18.89° C | 29% | 1015 hPa | 0 mm | 1.34 m/s, 340° | - | - |
| 1777662587 | 18.89° C | 36% | 1015 hPa | 0 mm | 0.45 m/s, 261° | - | - |
* Rain latest hour (hover to see other rain measurements)
** Current wind speed in m/s (hover to see current wind gust speed)